Apple Valley, North Dakota
Current Conditions -  °F | °C
As of 10:52 PM on Monday 22 Dec 2014 (Local Time) from KBIS Reporting Station
Light Snow Light Snow  
Wind Chill: 20°   Ceiling: 900
Heat Index: 31°   Visibility: 3mi
Dew Point: 29°   Wind: 15mph
Humidity: 92%   Direction: 340°NNW
Pressure: 29.76"   Gusts: NA
Location:  46.8954°N, 100.519°W
Report Text: KBIS 230452Z 34013KT 3SM -SN BR OVC009 M01/M02 A2976 RMK AO2 SLP098 P0001 T10061017
Loading
Personal Weather Stations






























Interactive Weather Map New forecast layout! Learn more

10-Day Weather Forecast

Advertisements
Track Severe Weather on mobile